Terminal Aerodrome Forecast
Issued by NWS Omaha/Valley, NE

Home | Current Version | Previous Version | Text Only | Print | Product List | Glossary On
Versions: 1 2 3 4 5 6 7 8 9 10 11 12 13 14 15 16 17 18 19 20 21 22 23 24 25 26 27 28 29 30 31 32 33 34 35 36 37 38 39 40 41
583
FTUS43 KOAX 131503 AAA
TAFOFK
TAF AMD
KOFK 131503Z 1315/1412 14013KT P6SM OVC045
     FM131700 15015G24KT P6SM OVC040
     FM131900 15018G25KT P6SM OVC025 PROB30 1406/1412 3SM -SN=

USA.gov is the U.S. government's official web portal to all federal, state and local government web resources and services.